createdAt,value
2023-03-21T00:04:40.921Z,22.20
2023-03-21T00:09:48.942Z,22.20
2023-03-21T00:14:54.014Z,22.20
2023-03-21T00:19:56.994Z,22.20
2023-03-21T00:25:02.588Z,22.10
2023-03-21T00:30:06.912Z,22.10
2023-03-21T00:35:43.934Z,22.20
2023-03-21T00:40:43.781Z,22.10
2023-03-21T00:45:52.423Z,22.10
2023-03-21T00:50:57.139Z,22.10
2023-03-21T00:56:01.913Z,22.10
2023-03-21T01:01:06.651Z,22.10
2023-03-21T01:06:13.377Z,22.00
2023-03-21T01:11:19.740Z,22.10
2023-03-21T01:16:22.867Z,22.10
2023-03-21T01:21:25.760Z,22.10
2023-03-21T01:26:30.459Z,22.00
2023-03-21T01:31:33.658Z,22.10
2023-03-21T01:36:36.851Z,22.00
2023-03-21T01:41:44.387Z,22.10
2023-03-21T01:47:03.589Z,22.00
2023-03-21T01:52:18.984Z,22.10
2023-03-21T01:57:40.393Z,22.00
2023-03-21T02:02:52.670Z,22.00
2023-03-21T02:07:55.706Z,22.00
2023-03-21T02:13:09.704Z,22.00
2023-03-21T02:18:18.308Z,22.00
2023-03-21T02:24:03.577Z,22.00
2023-03-21T02:29:17.868Z,22.10
2023-03-21T02:34:40.449Z,22.00
2023-03-21T02:39:52.046Z,22.00
2023-03-21T02:44:59.266Z,22.00
2023-03-21T02:50:09.268Z,22.00
2023-03-21T02:55:16.090Z,21.90
2023-03-21T03:00:21.621Z,22.00
2023-03-21T03:05:26.064Z,21.90
2023-03-21T03:10:40.831Z,22.00
2023-03-21T03:15:50.674Z,21.90
2023-03-21T03:20:59.002Z,21.90
2023-03-21T03:26:05.521Z,21.90
2023-03-21T03:31:11.996Z,22.00
2023-03-21T03:36:33.590Z,21.90
2023-03-21T03:42:07.933Z,21.90
2023-03-21T03:47:08.613Z,21.90
2023-03-21T03:52:14.764Z,21.90
2023-03-21T03:57:19.297Z,21.90
2023-03-21T04:02:22.187Z,21.90
2023-03-21T04:07:25.144Z,21.90
2023-03-21T04:12:29.326Z,21.90
2023-03-21T04:17:33.122Z,21.90
2023-03-21T04:22:36.027Z,21.80
2023-03-21T04:27:40.281Z,21.80
2023-03-21T04:32:43.142Z,21.80
2023-03-21T04:37:46.001Z,21.80
2023-03-21T04:42:50.380Z,21.80
2023-03-21T04:47:53.288Z,21.80
2023-03-21T04:52:56.175Z,21.80
2023-03-21T04:58:01.293Z,21.90
2023-03-21T05:03:05.038Z,21.80
2023-03-21T05:08:07.890Z,21.80
2023-03-21T05:13:12.113Z,21.70
2023-03-21T05:18:15.307Z,21.80
2023-03-21T05:23:18.550Z,21.70
2023-03-21T05:28:22.773Z,21.70
2023-03-21T05:33:25.593Z,21.80
2023-03-21T05:38:28.417Z,21.70
2023-03-21T05:43:32.537Z,21.70
2023-03-21T05:48:35.850Z,21.60
2023-03-21T05:53:38.727Z,21.70
2023-03-21T05:58:43.032Z,21.80
2023-03-21T06:03:46.042Z,21.80
2023-03-21T06:08:49.153Z,21.80
2023-03-21T06:13:53.297Z,21.70
2023-03-21T06:18:56.268Z,21.70
2023-03-21T06:23:59.058Z,21.80
2023-03-21T06:29:03.226Z,21.80
2023-03-21T06:34:06.104Z,21.80
2023-03-21T06:39:10.572Z,21.80
2023-03-21T06:44:14.738Z,21.70
2023-03-21T06:49:17.894Z,21.80
2023-03-21T06:54:21.170Z,21.90
2023-03-21T06:59:25.362Z,21.80
2023-03-21T07:04:28.311Z,21.90
2023-03-21T07:09:31.534Z,21.90
2023-03-21T07:14:35.722Z,21.90
2023-03-21T07:19:38.726Z,22.00
2023-03-21T07:24:41.602Z,22.00
2023-03-21T07:29:47.319Z,22.00
2023-03-21T07:34:50.112Z,22.10
2023-03-21T07:39:53.224Z,22.20
2023-03-21T07:44:57.603Z,22.20
2023-03-21T07:50:00.805Z,22.20
2023-03-21T07:55:03.765Z,22.30
2023-03-21T08:00:10.928Z,22.30
2023-03-21T08:05:13.794Z,22.30
2023-03-21T08:10:17.009Z,22.30
2023-03-21T08:15:21.627Z,22.20
2023-03-21T08:20:24.596Z,22.30
2023-03-21T08:25:27.422Z,22.30
2023-03-21T08:30:31.771Z,22.30
2023-03-21T08:35:34.931Z,22.30
2023-03-21T08:40:38.172Z,22.40
2023-03-21T08:45:42.595Z,22.50
2023-03-21T08:50:45.607Z,22.50
2023-03-21T08:55:50.279Z,22.70
2023-03-21T09:00:54.466Z,22.70
2023-03-21T09:05:59.045Z,22.90
2023-03-21T09:11:01.961Z,22.80
2023-03-21T09:16:06.936Z,22.70
2023-03-21T09:21:12.759Z,22.60
2023-03-21T09:26:16.269Z,22.60
2023-03-21T09:31:22.854Z,23.00
2023-03-21T09:36:27.273Z,22.90
2023-03-21T09:41:40.442Z,23.00
2023-03-21T09:46:48.465Z,23.00
2023-03-21T09:51:52.833Z,23.00
2023-03-21T09:56:58.154Z,23.00
2023-03-21T10:02:03.295Z,23.00
2023-03-21T10:07:07.909Z,23.10
2023-03-21T10:12:15.467Z,23.10
2023-03-21T10:17:27.301Z,23.20
2023-03-21T10:22:30.545Z,23.20
2023-03-21T10:27:34.245Z,23.10
2023-03-21T10:32:38.458Z,23.10
2023-03-21T10:37:41.393Z,23.20
2023-03-21T10:42:44.776Z,23.30
2023-03-21T10:47:50.590Z,23.20
2023-03-21T10:53:00.407Z,23.30
2023-03-21T10:58:08.374Z,23.20
2023-03-21T11:03:22.774Z,23.30
2023-03-21T11:08:27.301Z,23.30
2023-03-21T11:13:35.480Z,23.30
2023-03-21T11:18:43.382Z,23.10
2023-03-21T11:23:48.132Z,23.30
2023-03-21T11:28:51.370Z,23.10
2023-03-21T11:33:59.938Z,23.10
2023-03-21T11:39:14.373Z,23.00
2023-03-21T11:44:29.168Z,23.00
2023-03-21T11:49:33.442Z,23.00
2023-03-21T11:54:44.247Z,23.00
2023-03-21T11:59:53.198Z,23.10
2023-03-21T12:05:01.426Z,23.40
2023-03-21T12:10:22.126Z,23.60
2023-03-21T12:15:29.417Z,23.60
2023-03-21T12:20:41.010Z,23.60
2023-03-21T12:25:48.772Z,23.70
2023-03-21T12:30:59.961Z,23.60
2023-03-21T12:36:18.395Z,23.60
2023-03-21T12:41:25.582Z,23.50
2023-03-21T12:46:31.697Z,23.60
2023-03-21T12:51:38.356Z,23.50
2023-03-21T12:56:48.266Z,23.60
2023-03-21T13:01:54.639Z,23.80
2023-03-21T13:07:01.868Z,23.80
2023-03-21T13:12:09.914Z,23.90
2023-03-21T13:17:16.363Z,24.00
2023-03-21T13:22:24.573Z,24.10
2023-03-21T13:27:30.274Z,24.00
2023-03-21T13:32:35.243Z,24.10
2023-03-21T13:37:41.001Z,23.90
2023-03-21T13:42:45.969Z,23.80
2023-03-21T13:47:54.892Z,23.70
2023-03-21T13:53:35.476Z,23.70
2023-03-21T13:58:40.692Z,23.90
2023-03-21T14:03:46.014Z,23.80
2023-03-21T14:08:50.675Z,23.80
2023-03-21T14:13:54.954Z,23.80
2023-03-21T14:19:00.835Z,23.80
2023-03-21T14:24:07.133Z,23.80
2023-03-21T14:29:26.072Z,23.80
2023-03-21T14:34:31.752Z,24.10
2023-03-21T14:39:38.011Z,24.10
2023-03-21T14:44:58.674Z,24.00
2023-03-21T14:55:16.862Z,24.30
2023-03-21T15:00:24.745Z,24.10
2023-03-21T15:05:30.980Z,24.00
2023-03-21T15:10:37.940Z,24.00
2023-03-21T15:15:42.078Z,24.40
2023-03-21T15:20:47.940Z,24.00
2023-03-21T15:25:52.194Z,23.90
2023-03-21T15:30:56.399Z,23.90
2023-03-21T15:36:00.686Z,24.20
2023-03-21T15:41:28.772Z,24.30
2023-03-21T15:46:41.442Z,24.10
2023-03-21T15:51:46.574Z,24.30
2023-03-21T15:56:54.685Z,24.20
2023-03-21T16:01:57.704Z,24.00
2023-03-21T16:07:03.045Z,24.30
2023-03-21T16:12:12.036Z,24.00
2023-03-21T16:17:33.148Z,24.10
2023-03-21T16:22:36.106Z,24.00
2023-03-21T16:27:40.629Z,23.90
2023-03-21T16:32:43.467Z,23.80
2023-03-21T16:37:48.022Z,23.90
2023-03-21T16:42:52.171Z,24.10
2023-03-21T16:47:55.086Z,24.00
2023-03-21T16:52:58.769Z,24.20
2023-03-21T16:58:04.544Z,24.50
2023-03-21T17:03:15.311Z,24.10
2023-03-21T17:08:19.874Z,24.20
2023-03-21T17:13:24.090Z,24.00
2023-03-21T17:18:26.930Z,23.90
2023-03-21T17:23:29.827Z,23.80
2023-03-21T17:28:33.998Z,23.70
2023-03-21T17:33:36.818Z,23.90
2023-03-21T17:38:39.622Z,24.00
2023-03-21T17:43:43.992Z,24.00
2023-03-21T17:48:47.095Z,24.00
2023-03-21T17:53:51.154Z,23.90
2023-03-21T17:58:56.830Z,23.80
2023-03-21T18:04:02.439Z,23.80
2023-03-21T18:09:11.077Z,23.80
2023-03-21T18:14:19.194Z,23.80
2023-03-21T18:19:23.114Z,23.70
2023-03-21T18:24:26.047Z,23.70
2023-03-21T18:30:22.885Z,23.60
2023-03-21T18:34:54.120Z,23.60
2023-03-21T18:39:56.978Z,23.60
2023-03-21T18:45:01.174Z,23.60
2023-03-21T18:50:14.421Z,23.60
2023-03-21T18:55:18.700Z,23.50
2023-03-21T19:00:23.675Z,23.50
2023-03-21T19:05:27.350Z,23.40
2023-03-21T19:10:31.272Z,23.40
2023-03-21T19:15:35.810Z,23.40
2023-03-21T19:20:40.065Z,23.40
2023-03-21T19:25:43.881Z,23.40
2023-03-21T19:30:50.574Z,23.30
2023-03-21T19:36:10.829Z,23.30
2023-03-21T19:41:16.536Z,23.30
2023-03-21T19:46:23.106Z,23.20
2023-03-21T19:51:30.118Z,23.30
2023-03-21T19:56:34.802Z,23.30
2023-03-21T20:01:39.192Z,23.30
2023-03-21T20:06:42.041Z,23.20
2023-03-21T20:11:44.918Z,23.20
2023-03-21T20:16:49.179Z,23.20
2023-03-21T20:21:58.818Z,23.20
2023-03-21T20:27:02.867Z,23.10
2023-03-21T20:32:07.740Z,23.10
2023-03-21T20:37:11.402Z,23.10
2023-03-21T20:42:14.332Z,23.10
2023-03-21T20:47:18.607Z,23.10
2023-03-21T20:57:45.001Z,23.10
2023-03-21T21:02:50.814Z,22.90
2023-03-21T21:07:54.033Z,23.00
2023-03-21T21:12:57.224Z,23.00
2023-03-21T21:18:06.027Z,23.00
2023-03-21T21:23:10.487Z,23.00
2023-03-21T21:28:14.464Z,23.00
2023-03-21T21:33:21.031Z,22.90
2023-03-21T21:38:25.041Z,22.80
2023-03-21T21:43:28.784Z,22.80
2023-03-21T21:48:34.202Z,22.90
2023-03-21T21:53:38.945Z,22.90
2023-03-21T21:58:48.296Z,22.80
2023-03-21T22:03:53.032Z,22.80
2023-03-21T22:08:56.962Z,22.70
2023-03-21T22:14:00.226Z,22.80
2023-03-21T22:19:04.919Z,22.80
2023-03-21T22:24:08.582Z,22.70
2023-03-21T22:29:11.850Z,22.80
2023-03-21T22:34:16.499Z,22.80
2023-03-21T22:39:20.110Z,22.80
2023-03-21T22:44:23.352Z,22.70
2023-03-21T22:49:27.937Z,22.70
2023-03-21T22:54:31.460Z,22.70
2023-03-21T22:59:34.649Z,22.70
2023-03-21T23:04:39.499Z,22.60
2023-03-21T23:09:42.712Z,22.60
2023-03-21T23:14:45.872Z,22.60
2023-03-21T23:19:50.454Z,22.60
2023-03-21T23:24:53.656Z,22.60
2023-03-21T23:29:57.771Z,22.60
2023-03-21T23:35:02.361Z,22.60
2023-03-21T23:40:07.124Z,22.50
2023-03-21T23:45:10.756Z,22.50
2023-03-21T23:50:14.942Z,22.40
2023-03-21T23:55:17.930Z,22.50
